Indianapolis/Eagle Creek Airpark, Indiana
Current Conditions -  °F | °C
As of 7:53 AM on Monday 20 Oct 2014 (Local Time) from KEYE Reporting Station
Overcast Overcast  
Wind Chill: 50°   Ceiling: 9000
Heat Index: 50°   Visibility: 10mi
Dew Point: 44°   Wind: 8mph
Humidity: 80%   Direction: 210°SSW
Pressure: 29.93"   Gusts: NA
Location:  39.83°N, 86.3°W
Report Text: KEYE 201153Z AUTO 21007KT 10SM OVC090 10/07 A2993 RMK AO2 SLP135 60000 T01000067 10100 20083 56013
Loading
Personal Weather Stations






























Interactive Weather Map
Tropical Storm Tracking
New forecast layout! Learn more

10-Day Weather Forecast

Advertisements
Track Severe Weather on mobile